Terminal Aerodrome Forecast
Issued by NWS Blacksburg, VA

Home | Current Version | Previous Version | Text Only | Print | Product List | Glossary On
Versions: 1 2 3 4 5 6 7 8 9 10 11 12 13 14 15 16 17 18 19 20 21 22 23 24 25 26
000
FTUS41 KRNK 311504 AAA
TAFROA
TAF AMD
KROA 311504Z 3115/0112 22005KT P6SM SCT200
     FM311900 28008KT P6SM BKN250
     FM312300 27004KT P6SM BKN200
     FM010600 VRB03KT P6SM OVC100=

USA.gov is the U.S. government's official web portal to all federal, state and local government web resources and services.